Weather at Quesna Airport

Public forecast

Using degrees Celsius for public forecast. Weather courtesy of forecast.io.

Closest aviation weather report (METAR) to Quesna Airport

Closest report is Sphinx International Airport, 30.9 nm (57.2 km) SSW.

2024/06/18 22:00 (retrieved 55 minutes ago)

HESX 182200Z 34005KT CAVOK 25/17 Q1010 NOSIG

Closest aviation forecast (TAF) to Quesna Airport

Closest forecast is Sphinx International Airport, 30.9 nm (57.2 km) SSW.

2024/06/18 18:00 (retrieved 5 hours ago)

TAF HESX 181700Z 1818/1924 35011KT CAVOK PROB30 TEMPO 1903/1907 VRB03KT 3000 BR SCT025